sensor_id;sensor_type;location;lat;lon;timestamp;P1;durP1;ratioP1;P2;durP2;ratioP2
18501;SDS011;68437;52.236;5.710;2023-03-22T00:01:08;18.42;;;6.93;;
18501;SDS011;68437;52.236;5.710;2023-03-22T00:03:36;17.77;;;6.50;;
18501;SDS011;68437;52.236;5.710;2023-03-22T00:06:03;21.50;;;6.82;;
18501;SDS011;68437;52.236;5.710;2023-03-22T00:08:32;17.75;;;6.47;;
18501;SDS011;68437;52.236;5.710;2023-03-22T00:10:59;15.52;;;5.78;;
18501;SDS011;68437;52.236;5.710;2023-03-22T00:13:26;21.90;;;6.63;;
18501;SDS011;68437;52.236;5.710;2023-03-22T00:15:53;17.23;;;6.15;;
18501;SDS011;68437;52.236;5.710;2023-03-22T00:18:23;18.48;;;6.30;;
18501;SDS011;68437;52.236;5.710;2023-03-22T00:20:51;18.02;;;5.82;;
18501;SDS011;68437;52.236;5.710;2023-03-22T00:23:19;17.55;;;5.50;;
18501;SDS011;68437;52.236;5.710;2023-03-22T00:25:49;17.20;;;5.78;;
18501;SDS011;68437;52.236;5.710;2023-03-22T00:28:16;17.02;;;5.38;;
18501;SDS011;68437;52.236;5.710;2023-03-22T00:30:49;13.73;;;5.65;;
18501;SDS011;68437;52.236;5.710;2023-03-22T00:33:17;16.48;;;5.53;;
18501;SDS011;68437;52.236;5.710;2023-03-22T00:35:46;17.80;;;6.10;;
18501;SDS011;68437;52.236;5.710;2023-03-22T00:38:14;16.27;;;5.72;;
18501;SDS011;68437;52.236;5.710;2023-03-22T00:40:41;17.98;;;5.35;;
18501;SDS011;68437;52.236;5.710;2023-03-22T00:43:09;14.55;;;5.40;;
18501;SDS011;68437;52.236;5.710;2023-03-22T00:45:36;18.75;;;5.50;;
18501;SDS011;68437;52.236;5.710;2023-03-22T00:48:05;18.23;;;5.63;;
18501;SDS011;68437;52.236;5.710;2023-03-22T00:50:32;14.73;;;5.15;;
18501;SDS011;68437;52.236;5.710;2023-03-22T00:52:59;13.57;;;5.10;;
18501;SDS011;68437;52.236;5.710;2023-03-22T00:55:26;17.48;;;5.63;;
18501;SDS011;68437;52.236;5.710;2023-03-22T00:57:53;19.88;;;5.47;;
18501;SDS011;68437;52.236;5.710;2023-03-22T01:00:21;15.65;;;5.50;;
18501;SDS011;68437;52.236;5.710;2023-03-22T01:02:48;20.55;;;5.78;;
18501;SDS011;68437;52.236;5.710;2023-03-22T01:05:17;17.77;;;5.53;;
18501;SDS011;68437;52.236;5.710;2023-03-22T01:07:46;15.70;;;5.93;;
18501;SDS011;68437;52.236;5.710;2023-03-22T01:10:15;16.88;;;5.53;;
18501;SDS011;68437;52.236;5.710;2023-03-22T01:12:42;19.23;;;6.07;;
18501;SDS011;68437;52.236;5.710;2023-03-22T01:15:10;18.75;;;6.85;;
18501;SDS011;68437;52.236;5.710;2023-03-22T01:17:38;18.75;;;6.38;;
18501;SDS011;68437;52.236;5.710;2023-03-22T01:20:06;18.85;;;5.97;;
18501;SDS011;68437;52.236;5.710;2023-03-22T01:22:35;22.88;;;6.70;;
18501;SDS011;68437;52.236;5.710;2023-03-22T01:25:02;13.68;;;6.28;;
18501;SDS011;68437;52.236;5.710;2023-03-22T01:27:32;19.05;;;6.32;;
18501;SDS011;68437;52.236;5.710;2023-03-22T01:30:02;17.40;;;5.88;;
18501;SDS011;68437;52.236;5.710;2023-03-22T01:32:29;19.73;;;6.25;;
18501;SDS011;68437;52.236;5.710;2023-03-22T01:34:58;17.52;;;5.72;;
18501;SDS011;68437;52.236;5.710;2023-03-22T01:37:24;18.83;;;5.50;;
18501;SDS011;68437;52.236;5.710;2023-03-22T01:39:51;16.83;;;5.55;;
18501;SDS011;68437;52.236;5.710;2023-03-22T01:42:18;21.42;;;5.03;;
18501;SDS011;68437;52.236;5.710;2023-03-22T01:47:46;21.98;;;5.43;;
18501;SDS011;68437;52.236;5.710;2023-03-22T01:50:18;19.05;;;5.00;;
18501;SDS011;68437;52.236;5.710;2023-03-22T01:52:46;17.00;;;4.65;;
18501;SDS011;68437;52.236;5.710;2023-03-22T01:55:15;16.08;;;4.95;;
18501;SDS011;68437;52.236;5.710;2023-03-22T01:57:42;15.88;;;4.55;;
18501;SDS011;68437;52.236;5.710;2023-03-22T02:00:10;15.77;;;4.80;;
18501;SDS011;68437;52.236;5.710;2023-03-22T02:02:40;20.20;;;4.60;;
18501;SDS011;68437;52.236;5.710;2023-03-22T02:05:08;12.77;;;4.68;;
18501;SDS011;68437;52.236;5.710;2023-03-22T02:07:38;15.25;;;4.63;;
18501;SDS011;68437;52.236;5.710;2023-03-22T02:10:09;10.20;;;3.90;;
18501;SDS011;68437;52.236;5.710;2023-03-22T02:12:42;15.15;;;4.30;;
18501;SDS011;68437;52.236;5.710;2023-03-22T02:15:18;15.13;;;4.70;;
18501;SDS011;68437;52.236;5.710;2023-03-22T02:17:50;14.77;;;5.07;;
18501;SDS011;68437;52.236;5.710;2023-03-22T02:23:44;14.43;;;4.97;;
18501;SDS011;68437;52.236;5.710;2023-03-22T02:29:30;16.35;;;4.80;;
18501;SDS011;68437;52.236;5.710;2023-03-22T02:38:07;15.25;;;4.82;;
18501;SDS011;68437;52.236;5.710;2023-03-22T02:40:46;14.98;;;5.60;;
18501;SDS011;68437;52.236;5.710;2023-03-22T02:43:19;17.48;;;5.75;;
18501;SDS011;68437;52.236;5.710;2023-03-22T02:45:55;15.55;;;6.45;;
18501;SDS011;68437;52.236;5.710;2023-03-22T02:48:30;16.65;;;6.70;;
18501;SDS011;68437;52.236;5.710;2023-03-22T02:51:01;16.52;;;7.30;;
18501;SDS011;68437;52.236;5.710;2023-03-22T02:53:34;20.15;;;7.63;;
18501;SDS011;68437;52.236;5.710;2023-03-22T02:56:11;21.17;;;7.80;;
18501;SDS011;68437;52.236;5.710;2023-03-22T02:58:50;23.13;;;9.38;;
18501;SDS011;68437;52.236;5.710;2023-03-22T03:01:21;25.27;;;10.27;;
18501;SDS011;68437;52.236;5.710;2023-03-22T03:03:53;23.13;;;9.88;;
18501;SDS011;68437;52.236;5.710;2023-03-22T03:06:23;25.60;;;11.02;;
18501;SDS011;68437;52.236;5.710;2023-03-22T03:08:53;25.58;;;11.30;;
18501;SDS011;68437;52.236;5.710;2023-03-22T03:11:23;27.73;;;12.25;;
18501;SDS011;68437;52.236;5.710;2023-03-22T03:13:50;25.05;;;11.68;;
18501;SDS011;68437;52.236;5.710;2023-03-22T03:16:18;27.00;;;11.88;;
18501;SDS011;68437;52.236;5.710;2023-03-22T03:18:52;29.17;;;12.75;;
18501;SDS011;68437;52.236;5.710;2023-03-22T03:21:30;28.60;;;12.95;;
18501;SDS011;68437;52.236;5.710;2023-03-22T03:24:11;32.50;;;13.10;;
18501;SDS011;68437;52.236;5.710;2023-03-22T03:26:47;29.65;;;13.75;;
18501;SDS011;68437;52.236;5.710;2023-03-22T03:29:22;37.25;;;14.00;;
18501;SDS011;68437;52.236;5.710;2023-03-22T03:31:54;30.40;;;14.95;;
18501;SDS011;68437;52.236;5.710;2023-03-22T03:34:28;30.85;;;14.02;;
18501;SDS011;68437;52.236;5.710;2023-03-22T03:36:59;31.02;;;15.25;;
18501;SDS011;68437;52.236;5.710;2023-03-22T03:39:32;34.72;;;14.80;;
18501;SDS011;68437;52.236;5.710;2023-03-22T03:42:05;34.55;;;15.57;;
18501;SDS011;68437;52.236;5.710;2023-03-22T03:44:36;32.25;;;15.10;;
18501;SDS011;68437;52.236;5.710;2023-03-22T03:47:04;35.92;;;16.52;;
18501;SDS011;68437;52.236;5.710;2023-03-22T03:49:32;39.92;;;15.90;;
18501;SDS011;68437;52.236;5.710;2023-03-22T03:52:00;37.58;;;16.00;;
18501;SDS011;68437;52.236;5.710;2023-03-22T03:54:28;37.67;;;15.27;;
18501;SDS011;68437;52.236;5.710;2023-03-22T03:56:55;32.30;;;15.70;;
18501;SDS011;68437;52.236;5.710;2023-03-22T03:59:23;31.63;;;15.85;;
18501;SDS011;68437;52.236;5.710;2023-03-22T04:01:53;41.45;;;16.90;;
18501;SDS011;68437;52.236;5.710;2023-03-22T04:04:20;38.20;;;17.35;;
18501;SDS011;68437;52.236;5.710;2023-03-22T04:06:51;34.42;;;16.55;;
18501;SDS011;68437;52.236;5.710;2023-03-22T04:09:20;34.28;;;16.67;;
18501;SDS011;68437;52.236;5.710;2023-03-22T04:11:50;33.20;;;16.60;;
18501;SDS011;68437;52.236;5.710;2023-03-22T04:14:17;39.90;;;17.23;;
18501;SDS011;68437;52.236;5.710;2023-03-22T04:16:46;34.13;;;16.95;;
18501;SDS011;68437;52.236;5.710;2023-03-22T04:19:12;35.50;;;17.85;;
18501;SDS011;68437;52.236;5.710;2023-03-22T04:21:40;37.22;;;16.83;;
18501;SDS011;68437;52.236;5.710;2023-03-22T04:24:07;34.47;;;16.65;;
18501;SDS011;68437;52.236;5.710;2023-03-22T04:26:35;38.47;;;17.48;;
18501;SDS011;68437;52.236;5.710;2023-03-22T04:29:02;36.35;;;16.75;;
18501;SDS011;68437;52.236;5.710;2023-03-22T04:31:29;34.50;;;17.38;;
18501;SDS011;68437;52.236;5.710;2023-03-22T04:34:01;42.70;;;18.17;;
18501;SDS011;68437;52.236;5.710;2023-03-22T04:36:30;38.67;;;17.58;;
18501;SDS011;68437;52.236;5.710;2023-03-22T04:39:00;35.30;;;16.27;;
18501;SDS011;68437;52.236;5.710;2023-03-22T04:41:29;37.42;;;17.90;;
18501;SDS011;68437;52.236;5.710;2023-03-22T04:43:56;31.50;;;16.27;;
18501;SDS011;68437;52.236;5.710;2023-03-22T04:46:29;37.88;;;16.92;;
18501;SDS011;68437;52.236;5.710;2023-03-22T04:48:58;38.55;;;16.42;;
18501;SDS011;68437;52.236;5.710;2023-03-22T04:51:28;32.42;;;16.65;;
18501;SDS011;68437;52.236;5.710;2023-03-22T04:53:56;34.03;;;16.85;;
18501;SDS011;68437;52.236;5.710;2023-03-22T04:56:23;35.72;;;16.77;;
18501;SDS011;68437;52.236;5.710;2023-03-22T04:58:50;36.58;;;16.17;;
18501;SDS011;68437;52.236;5.710;2023-03-22T05:01:17;36.15;;;15.85;;
18501;SDS011;68437;52.236;5.710;2023-03-22T05:03:44;37.47;;;15.55;;
18501;SDS011;68437;52.236;5.710;2023-03-22T05:06:14;32.03;;;15.48;;
18501;SDS011;68437;52.236;5.710;2023-03-22T05:08:41;28.30;;;14.75;;
18501;SDS011;68437;52.236;5.710;2023-03-22T05:11:09;30.42;;;15.23;;
18501;SDS011;68437;52.236;5.710;2023-03-22T05:13:38;36.92;;;15.45;;
18501;SDS011;68437;52.236;5.710;2023-03-22T05:16:05;37.03;;;15.68;;
18501;SDS011;68437;52.236;5.710;2023-03-22T05:18:33;34.00;;;15.40;;
18501;SDS011;68437;52.236;5.710;2023-03-22T05:21:02;28.80;;;14.85;;
18501;SDS011;68437;52.236;5.710;2023-03-22T05:23:32;30.80;;;13.65;;
18501;SDS011;68437;52.236;5.710;2023-03-22T05:25:59;26.98;;;14.10;;
18501;SDS011;68437;52.236;5.710;2023-03-22T05:28:28;35.33;;;14.82;;
18501;SDS011;68437;52.236;5.710;2023-03-22T05:30:55;33.15;;;14.00;;
18501;SDS011;68437;52.236;5.710;2023-03-22T05:33:22;26.60;;;13.57;;
18501;SDS011;68437;52.236;5.710;2023-03-22T05:35:49;30.85;;;13.23;;
18501;SDS011;68437;52.236;5.710;2023-03-22T05:38:16;30.00;;;13.48;;
18501;SDS011;68437;52.236;5.710;2023-03-22T05:40:45;26.42;;;13.27;;
18501;SDS011;68437;52.236;5.710;2023-03-22T05:43:12;27.92;;;13.23;;
18501;SDS011;68437;52.236;5.710;2023-03-22T05:45:39;23.60;;;12.30;;
18501;SDS011;68437;52.236;5.710;2023-03-22T05:48:06;26.00;;;12.38;;
18501;SDS011;68437;52.236;5.710;2023-03-22T05:50:32;26.40;;;12.18;;
18501;SDS011;68437;52.236;5.710;2023-03-22T05:53:00;31.23;;;12.60;;
18501;SDS011;68437;52.236;5.710;2023-03-22T05:55:27;30.75;;;12.68;;
18501;SDS011;68437;52.236;5.710;2023-03-22T05:57:57;22.77;;;12.27;;
18501;SDS011;68437;52.236;5.710;2023-03-22T06:00:25;27.98;;;11.95;;
18501;SDS011;68437;52.236;5.710;2023-03-22T06:02:52;25.23;;;10.88;;
18501;SDS011;68437;52.236;5.710;2023-03-22T06:05:20;24.35;;;10.98;;
18501;SDS011;68437;52.236;5.710;2023-03-22T06:07:48;26.67;;;11.45;;
18501;SDS011;68437;52.236;5.710;2023-03-22T06:10:15;21.35;;;11.10;;
18501;SDS011;68437;52.236;5.710;2023-03-22T06:12:42;26.58;;;11.02;;
18501;SDS011;68437;52.236;5.710;2023-03-22T06:15:11;25.35;;;10.90;;
18501;SDS011;68437;52.236;5.710;2023-03-22T06:17:38;19.75;;;9.82;;
18501;SDS011;68437;52.236;5.710;2023-03-22T06:20:06;26.15;;;11.10;;
18501;SDS011;68437;52.236;5.710;2023-03-22T06:22:36;22.02;;;9.07;;
18501;SDS011;68437;52.236;5.710;2023-03-22T06:25:04;20.13;;;9.27;;
18501;SDS011;68437;52.236;5.710;2023-03-22T06:27:32;18.10;;;8.88;;
18501;SDS011;68437;52.236;5.710;2023-03-22T06:29:59;25.70;;;9.07;;
18501;SDS011;68437;52.236;5.710;2023-03-22T06:32:27;24.40;;;9.70;;
18501;SDS011;68437;52.236;5.710;2023-03-22T06:34:54;19.80;;;8.73;;
18501;SDS011;68437;52.236;5.710;2023-03-22T06:37:22;18.98;;;8.27;;
18501;SDS011;68437;52.236;5.710;2023-03-22T06:39:50;20.48;;;7.72;;
18501;SDS011;68437;52.236;5.710;2023-03-22T06:42:17;20.85;;;7.70;;
18501;SDS011;68437;52.236;5.710;2023-03-22T06:44:44;20.00;;;8.07;;
18501;SDS011;68437;52.236;5.710;2023-03-22T06:47:11;20.75;;;7.72;;
18501;SDS011;68437;52.236;5.710;2023-03-22T06:49:39;23.55;;;7.70;;
18501;SDS011;68437;52.236;5.710;2023-03-22T06:52:06;16.83;;;7.18;;
18501;SDS011;68437;52.236;5.710;2023-03-22T06:54:33;19.58;;;7.25;;
18501;SDS011;68437;52.236;5.710;2023-03-22T06:57:00;20.35;;;7.55;;
18501;SDS011;68437;52.236;5.710;2023-03-22T06:59:27;17.38;;;6.40;;
18501;SDS011;68437;52.236;5.710;2023-03-22T07:01:54;17.10;;;6.50;;
18501;SDS011;68437;52.236;5.710;2023-03-22T07:04:20;17.90;;;6.43;;
18501;SDS011;68437;52.236;5.710;2023-03-22T07:06:49;16.92;;;6.75;;
18501;SDS011;68437;52.236;5.710;2023-03-22T07:09:16;17.08;;;6.32;;
18501;SDS011;68437;52.236;5.710;2023-03-22T07:11:43;17.45;;;6.28;;
18501;SDS011;68437;52.236;5.710;2023-03-22T07:14:10;14.93;;;6.03;;
18501;SDS011;68437;52.236;5.710;2023-03-22T07:16:36;17.75;;;6.20;;
18501;SDS011;68437;52.236;5.710;2023-03-22T07:19:03;18.77;;;6.03;;
18501;SDS011;68437;52.236;5.710;2023-03-22T07:21:31;15.73;;;6.22;;
18501;SDS011;68437;52.236;5.710;2023-03-22T07:23:59;16.67;;;5.65;;
18501;SDS011;68437;52.236;5.710;2023-03-22T07:26:26;19.88;;;5.78;;
18501;SDS011;68437;52.236;5.710;2023-03-22T07:28:54;15.65;;;6.05;;
18501;SDS011;68437;52.236;5.710;2023-03-22T07:31:21;19.95;;;5.90;;
18501;SDS011;68437;52.236;5.710;2023-03-22T07:33:48;15.68;;;5.65;;
18501;SDS011;68437;52.236;5.710;2023-03-22T07:36:16;17.10;;;6.68;;
18501;SDS011;68437;52.236;5.710;2023-03-22T07:38:48;20.90;;;5.85;;
18501;SDS011;68437;52.236;5.710;2023-03-22T07:41:16;17.15;;;5.30;;
18501;SDS011;68437;52.236;5.710;2023-03-22T07:43:43;14.15;;;5.22;;
18501;SDS011;68437;52.236;5.710;2023-03-22T07:46:10;15.18;;;5.20;;
18501;SDS011;68437;52.236;5.710;2023-03-22T07:48:37;15.70;;;5.13;;
18501;SDS011;68437;52.236;5.710;2023-03-22T07:51:05;22.23;;;5.40;;
18501;SDS011;68437;52.236;5.710;2023-03-22T07:53:32;16.52;;;4.88;;
18501;SDS011;68437;52.236;5.710;2023-03-22T07:55:58;10.93;;;4.55;;
18501;SDS011;68437;52.236;5.710;2023-03-22T07:58:27;18.50;;;4.93;;
18501;SDS011;68437;52.236;5.710;2023-03-22T08:00:53;14.07;;;4.20;;
18501;SDS011;68437;52.236;5.710;2023-03-22T08:03:20;16.20;;;4.50;;
18501;SDS011;68437;52.236;5.710;2023-03-22T08:05:47;15.27;;;4.43;;
18501;SDS011;68437;52.236;5.710;2023-03-22T08:08:15;17.27;;;4.60;;
18501;SDS011;68437;52.236;5.710;2023-03-22T08:10:46;13.70;;;4.47;;
18501;SDS011;68437;52.236;5.710;2023-03-22T08:13:14;13.80;;;4.60;;
18501;SDS011;68437;52.236;5.710;2023-03-22T08:15:42;18.30;;;4.78;;
18501;SDS011;68437;52.236;5.710;2023-03-22T08:18:09;12.85;;;4.68;;
18501;SDS011;68437;52.236;5.710;2023-03-22T08:20:36;14.85;;;4.20;;
18501;SDS011;68437;52.236;5.710;2023-03-22T08:23:03;14.10;;;4.10;;
18501;SDS011;68437;52.236;5.710;2023-03-22T08:25:32;14.38;;;4.25;;
18501;SDS011;68437;52.236;5.710;2023-03-22T08:27:59;15.98;;;4.47;;
18501;SDS011;68437;52.236;5.710;2023-03-22T08:30:26;14.82;;;4.47;;
18501;SDS011;68437;52.236;5.710;2023-03-22T08:32:54;14.93;;;4.35;;
18501;SDS011;68437;52.236;5.710;2023-03-22T08:35:21;14.75;;;4.28;;
18501;SDS011;68437;52.236;5.710;2023-03-22T08:37:49;18.15;;;4.78;;
18501;SDS011;68437;52.236;5.710;2023-03-22T08:40:18;18.92;;;5.20;;
18501;SDS011;68437;52.236;5.710;2023-03-22T08:42:46;17.92;;;4.28;;
18501;SDS011;68437;52.236;5.710;2023-03-22T08:45:13;22.42;;;6.03;;
18501;SDS011;68437;52.236;5.710;2023-03-22T08:47:41;16.45;;;5.68;;
18501;SDS011;68437;52.236;5.710;2023-03-22T08:50:10;18.52;;;5.90;;
18501;SDS011;68437;52.236;5.710;2023-03-22T08:52:37;19.50;;;7.60;;
18501;SDS011;68437;52.236;5.710;2023-03-22T08:55:04;19.60;;;6.43;;
18501;SDS011;68437;52.236;5.710;2023-03-22T08:57:52;24.50;;;7.95;;
18501;SDS011;68437;52.236;5.710;2023-03-22T09:00:23;20.77;;;5.63;;
18501;SDS011;68437;52.236;5.710;2023-03-22T09:02:50;17.67;;;5.28;;
18501;SDS011;68437;52.236;5.710;2023-03-22T09:05:18;16.23;;;4.95;;
18501;SDS011;68437;52.236;5.710;2023-03-22T09:07:45;14.32;;;4.97;;
18501;SDS011;68437;52.236;5.710;2023-03-22T09:10:16;21.58;;;8.18;;
18501;SDS011;68437;52.236;5.710;2023-03-22T09:12:44;20.65;;;5.32;;
18501;SDS011;68437;52.236;5.710;2023-03-22T09:15:10;21.48;;;6.35;;
18501;SDS011;68437;52.236;5.710;2023-03-22T09:17:37;17.98;;;4.88;;
18501;SDS011;68437;52.236;5.710;2023-03-22T09:20:04;17.00;;;5.25;;
18501;SDS011;68437;52.236;5.710;2023-03-22T09:22:33;14.90;;;4.75;;
18501;SDS011;68437;52.236;5.710;2023-03-22T09:25:01;12.00;;;4.00;;
18501;SDS011;68437;52.236;5.710;2023-03-22T09:27:28;11.43;;;4.15;;
18501;SDS011;68437;52.236;5.710;2023-03-22T09:29:55;13.52;;;4.22;;
18501;SDS011;68437;52.236;5.710;2023-03-22T09:32:23;13.98;;;4.20;;
18501;SDS011;68437;52.236;5.710;2023-03-22T09:34:49;13.18;;;4.03;;
18501;SDS011;68437;52.236;5.710;2023-03-22T09:37:17;13.35;;;4.05;;
18501;SDS011;68437;52.236;5.710;2023-03-22T09:39:46;13.90;;;4.18;;
18501;SDS011;68437;52.236;5.710;2023-03-22T09:42:19;14.45;;;3.83;;
18501;SDS011;68437;52.236;5.710;2023-03-22T09:44:53;20.27;;;4.28;;
18501;SDS011;68437;52.236;5.710;2023-03-22T09:47:23;19.60;;;4.03;;
18501;SDS011;68437;52.236;5.710;2023-03-22T09:50:00;12.10;;;3.83;;
18501;SDS011;68437;52.236;5.710;2023-03-22T09:52:31;15.18;;;3.58;;
18501;SDS011;68437;52.236;5.710;2023-03-22T09:55:05;17.85;;;4.35;;
18501;SDS011;68437;52.236;5.710;2023-03-22T09:57:38;14.65;;;3.63;;
18501;SDS011;68437;52.236;5.710;2023-03-22T10:00:08;13.98;;;3.75;;
18501;SDS011;68437;52.236;5.710;2023-03-22T10:02:45;14.55;;;3.40;;
18501;SDS011;68437;52.236;5.710;2023-03-22T10:05:20;12.82;;;4.05;;
18501;SDS011;68437;52.236;5.710;2023-03-22T10:07:57;13.15;;;4.20;;
18501;SDS011;68437;52.236;5.710;2023-03-22T10:10:44;13.77;;;3.97;;
18501;SDS011;68437;52.236;5.710;2023-03-22T10:13:13;18.35;;;4.45;;
18501;SDS011;68437;52.236;5.710;2023-03-22T10:15:45;16.13;;;4.43;;
18501;SDS011;68437;52.236;5.710;2023-03-22T10:18:15;19.95;;;7.80;;
18501;SDS011;68437;52.236;5.710;2023-03-22T10:20:45;20.17;;;8.48;;
18501;SDS011;68437;52.236;5.710;2023-03-22T10:23:16;16.55;;;5.13;;
18501;SDS011;68437;52.236;5.710;2023-03-22T10:25:48;12.52;;;3.78;;
18501;SDS011;68437;52.236;5.710;2023-03-22T10:28:17;11.95;;;4.22;;
18501;SDS011;68437;52.236;5.710;2023-03-22T10:30:49;14.23;;;3.90;;
18501;SDS011;68437;52.236;5.710;2023-03-22T10:33:20;15.25;;;4.03;;
18501;SDS011;68437;52.236;5.710;2023-03-22T10:35:53;13.68;;;4.07;;
18501;SDS011;68437;52.236;5.710;2023-03-22T10:38:22;13.65;;;4.22;;
18501;SDS011;68437;52.236;5.710;2023-03-22T10:40:53;17.17;;;4.50;;
18501;SDS011;68437;52.236;5.710;2023-03-22T10:43:22;19.20;;;4.57;;
18501;SDS011;68437;52.236;5.710;2023-03-22T10:45:53;13.93;;;4.88;;
18501;SDS011;68437;52.236;5.710;2023-03-22T10:48:26;14.27;;;5.03;;
18501;SDS011;68437;52.236;5.710;2023-03-22T10:50:57;18.10;;;6.00;;
18501;SDS011;68437;52.236;5.710;2023-03-22T10:53:29;16.85;;;4.40;;
18501;SDS011;68437;52.236;5.710;2023-03-22T10:56:04;20.73;;;5.13;;
18501;SDS011;68437;52.236;5.710;2023-03-22T10:58:35;16.40;;;4.40;;
18501;SDS011;68437;52.236;5.710;2023-03-22T11:01:03;14.82;;;4.72;;
18501;SDS011;68437;52.236;5.710;2023-03-22T11:03:35;13.93;;;5.50;;
18501;SDS011;68437;52.236;5.710;2023-03-22T11:06:06;19.00;;;6.15;;
18501;SDS011;68437;52.236;5.710;2023-03-22T11:08:42;16.90;;;4.95;;
18501;SDS011;68437;52.236;5.710;2023-03-22T11:11:18;19.17;;;5.50;;
18501;SDS011;68437;52.236;5.710;2023-03-22T11:13:51;12.05;;;4.95;;
18501;SDS011;68437;52.236;5.710;2023-03-22T11:16:21;11.95;;;4.60;;
18501;SDS011;68437;52.236;5.710;2023-03-22T11:18:48;18.65;;;4.97;;
18501;SDS011;68437;52.236;5.710;2023-03-22T11:21:16;14.35;;;4.65;;
18501;SDS011;68437;52.236;5.710;2023-03-22T11:23:48;14.57;;;4.65;;
18501;SDS011;68437;52.236;5.710;2023-03-22T11:26:25;12.30;;;4.72;;
18501;SDS011;68437;52.236;5.710;2023-03-22T11:28:59;14.43;;;4.35;;
18501;SDS011;68437;52.236;5.710;2023-03-22T11:31:46;15.65;;;4.13;;
18501;SDS011;68437;52.236;5.710;2023-03-22T11:34:16;14.02;;;4.20;;
18501;SDS011;68437;52.236;5.710;2023-03-22T11:36:45;12.30;;;4.40;;
18501;SDS011;68437;52.236;5.710;2023-03-22T11:39:18;13.02;;;4.22;;
18501;SDS011;68437;52.236;5.710;2023-03-22T11:41:47;17.17;;;4.63;;
18501;SDS011;68437;52.236;5.710;2023-03-22T11:44:15;14.65;;;4.38;;
18501;SDS011;68437;52.236;5.710;2023-03-22T11:46:47;12.05;;;5.00;;
18501;SDS011;68437;52.236;5.710;2023-03-22T11:49:18;16.48;;;5.35;;
18501;SDS011;68437;52.236;5.710;2023-03-22T11:51:45;11.23;;;4.57;;
18501;SDS011;68437;52.236;5.710;2023-03-22T11:54:14;15.63;;;4.75;;
18501;SDS011;68437;52.236;5.710;2023-03-22T11:56:49;10.73;;;4.68;;
18501;SDS011;68437;52.236;5.710;2023-03-22T11:59:21;13.65;;;5.07;;
18501;SDS011;68437;52.236;5.710;2023-03-22T12:01:49;9.80;;;4.47;;
18501;SDS011;68437;52.236;5.710;2023-03-22T12:04:23;11.77;;;4.68;;
18501;SDS011;68437;52.236;5.710;2023-03-22T12:06:53;12.95;;;5.30;;
18501;SDS011;68437;52.236;5.710;2023-03-22T12:09:24;12.30;;;4.70;;
18501;SDS011;68437;52.236;5.710;2023-03-22T12:11:59;10.07;;;4.63;;
18501;SDS011;68437;52.236;5.710;2023-03-22T12:14:31;12.93;;;5.15;;
18501;SDS011;68437;52.236;5.710;2023-03-22T12:17:00;15.43;;;5.72;;
18501;SDS011;68437;52.236;5.710;2023-03-22T12:19:38;11.82;;;4.88;;
18501;SDS011;68437;52.236;5.710;2023-03-22T12:22:12;13.43;;;5.45;;
18501;SDS011;68437;52.236;5.710;2023-03-22T12:24:43;15.77;;;4.97;;
18501;SDS011;68437;52.236;5.710;2023-03-22T12:27:14;14.02;;;5.10;;
18501;SDS011;68437;52.236;5.710;2023-03-22T12:29:44;16.08;;;5.80;;
18501;SDS011;68437;52.236;5.710;2023-03-22T12:32:16;13.82;;;6.15;;
18501;SDS011;68437;52.236;5.710;2023-03-22T12:34:48;13.27;;;4.95;;
18501;SDS011;68437;52.236;5.710;2023-03-22T12:37:17;14.02;;;5.70;;
18501;SDS011;68437;52.236;5.710;2023-03-22T12:39:48;13.27;;;4.85;;
18501;SDS011;68437;52.236;5.710;2023-03-22T12:42:21;13.05;;;5.35;;
18501;SDS011;68437;52.236;5.710;2023-03-22T12:44:53;15.95;;;5.70;;
18501;SDS011;68437;52.236;5.710;2023-03-22T12:47:24;12.20;;;5.50;;
18501;SDS011;68437;52.236;5.710;2023-03-22T12:49:55;14.23;;;5.95;;
18501;SDS011;68437;52.236;5.710;2023-03-22T12:52:29;10.70;;;5.13;;
18501;SDS011;68437;52.236;5.710;2023-03-22T12:55:02;15.18;;;5.70;;
18501;SDS011;68437;52.236;5.710;2023-03-22T12:57:32;13.18;;;5.35;;
18501;SDS011;68437;52.236;5.710;2023-03-22T13:00:04;11.95;;;4.93;;
18501;SDS011;68437;52.236;5.710;2023-03-22T13:02:40;14.77;;;5.43;;
18501;SDS011;68437;52.236;5.710;2023-03-22T13:05:15;10.57;;;4.97;;
18501;SDS011;68437;52.236;5.710;2023-03-22T13:07:51;15.90;;;5.70;;
18501;SDS011;68437;52.236;5.710;2023-03-22T13:10:38;11.77;;;4.47;;
18501;SDS011;68437;52.236;5.710;2023-03-22T13:13:16;16.52;;;5.30;;
18501;SDS011;68437;52.236;5.710;2023-03-22T13:16:14;14.63;;;6.55;;
18501;SDS011;68437;52.236;5.710;2023-03-22T13:18:57;21.58;;;7.10;;
18501;SDS011;68437;52.236;5.710;2023-03-22T13:21:26;14.13;;;7.10;;
18501;SDS011;68437;52.236;5.710;2023-03-22T13:23:56;11.30;;;4.93;;
18501;SDS011;68437;52.236;5.710;2023-03-22T13:26:34;12.35;;;5.38;;
18501;SDS011;68437;52.236;5.710;2023-03-22T13:29:14;16.13;;;6.70;;
18501;SDS011;68437;52.236;5.710;2023-03-22T13:31:43;16.48;;;6.15;;
18501;SDS011;68437;52.236;5.710;2023-03-22T13:34:13;15.68;;;6.20;;
18501;SDS011;68437;52.236;5.710;2023-03-22T13:36:50;17.25;;;5.63;;
18501;SDS011;68437;52.236;5.710;2023-03-22T13:39:19;12.00;;;5.82;;
18501;SDS011;68437;52.236;5.710;2023-03-22T13:41:58;11.23;;;5.10;;
18501;SDS011;68437;52.236;5.710;2023-03-22T13:44:30;11.25;;;5.20;;
18501;SDS011;68437;52.236;5.710;2023-03-22T13:47:03;12.48;;;5.43;;
18501;SDS011;68437;52.236;5.710;2023-03-22T13:49:40;9.40;;;4.72;;
18501;SDS011;68437;52.236;5.710;2023-03-22T13:52:20;11.55;;;5.00;;
18501;SDS011;68437;52.236;5.710;2023-03-22T13:54:52;17.52;;;6.15;;
18501;SDS011;68437;52.236;5.710;2023-03-22T14:00:35;12.93;;;5.75;;
18501;SDS011;68437;52.236;5.710;2023-03-22T14:03:13;13.95;;;4.90;;
18501;SDS011;68437;52.236;5.710;2023-03-22T14:05:45;15.57;;;5.78;;
18501;SDS011;68437;52.236;5.710;2023-03-22T14:08:19;16.23;;;5.82;;
18501;SDS011;68437;52.236;5.710;2023-03-22T14:10:51;10.35;;;5.07;;
18501;SDS011;68437;52.236;5.710;2023-03-22T14:13:26;14.40;;;6.65;;
18501;SDS011;68437;52.236;5.710;2023-03-22T14:15:58;15.05;;;6.50;;
18501;SDS011;68437;52.236;5.710;2023-03-22T14:18:30;17.17;;;8.18;;
18501;SDS011;68437;52.236;5.710;2023-03-22T14:20:59;16.13;;;8.98;;
18501;SDS011;68437;52.236;5.710;2023-03-22T14:23:29;22.55;;;12.38;;
18501;SDS011;68437;52.236;5.710;2023-03-22T14:25:59;20.17;;;8.70;;
18501;SDS011;68437;52.236;5.710;2023-03-22T14:28:32;15.60;;;6.63;;
18501;SDS011;68437;52.236;5.710;2023-03-22T14:31:03;17.23;;;7.88;;
18501;SDS011;68437;52.236;5.710;2023-03-22T14:33:30;19.65;;;8.95;;
18501;SDS011;68437;52.236;5.710;2023-03-22T14:36:02;18.83;;;10.20;;
18501;SDS011;68437;52.236;5.710;2023-03-22T14:38:33;17.05;;;8.70;;
18501;SDS011;68437;52.236;5.710;2023-03-22T14:41:07;17.13;;;7.80;;
18501;SDS011;68437;52.236;5.710;2023-03-22T14:43:36;15.23;;;8.18;;
18501;SDS011;68437;52.236;5.710;2023-03-22T14:46:06;21.27;;;8.30;;
18501;SDS011;68437;52.236;5.710;2023-03-22T14:48:39;18.00;;;8.38;;
18501;SDS011;68437;52.236;5.710;2023-03-22T14:51:08;17.38;;;8.65;;
18501;SDS011;68437;52.236;5.710;2023-03-22T14:53:40;16.73;;;7.80;;
18501;SDS011;68437;52.236;5.710;2023-03-22T14:56:11;17.00;;;8.93;;
18501;SDS011;68437;52.236;5.710;2023-03-22T14:58:43;17.50;;;7.72;;
18501;SDS011;68437;52.236;5.710;2023-03-22T15:01:14;11.60;;;6.60;;
18501;SDS011;68437;52.236;5.710;2023-03-22T15:03:43;13.10;;;6.78;;
18501;SDS011;68437;52.236;5.710;2023-03-22T15:06:12;11.95;;;7.57;;